Terminal Aerodrome Forecast
Issued by NWS Sioux Falls, SD

Home | Current Version | Previous Version | Graphics & Text | Print | Product List | Glossary Off
Versions: 1 2 3 4 5 6 7 8 9 10 11 12

000
FTUS43 KFSD 090500
TAFHON
TAF
KHON 090530Z 0906/1006 VRB03KT 6SM FU FEW100
     FM091500 35007KT P6SM SKC
     FM092100 07008KT P6SM SCT060
     FM100000 12007KT P6SM SKC=

USA.gov is the U.S. government's official web portal to all federal, state and local government web resources and services.